Time;durP1;ratioP1;P1;durP2;ratioP2;P2;SDS_P1;SDS_P2;PMS_P1;PMS_P2;Temp;Humidity;BMP_temperature;BMP_pressure;BME280_temperature;BME280_humidity;BME280_pressure;Samples;Min_cycle;Max_cycle;Signal;HPM_P1;HPM_P2
2023/05/14 00:01:27;;;;;;;14.93;8.88;;;12.20;99.90;;;;;;5080107;28;20041;-57
2023/05/14 00:03:52;;;;;;;17.52;8.07;;;12.10;99.90;;;;;;5081530;28;20652;-58
2023/05/14 00:06:18;;;;;;;16.42;8.85;;;12.10;99.90;;;;;;5080775;28;20455;-58
2023/05/14 00:08:44;;;;;;;14.23;8.63;;;12.00;99.90;;;;;;5080451;28;20087;-58
2023/05/14 00:11:09;;;;;;;13.68;7.75;;;12.10;99.90;;;;;;5081355;28;20110;-56
2023/05/14 00:13:35;;;;;;;15.18;9.02;;;12.10;99.90;;;;;;5061531;28;20448;-58
2023/05/14 00:16:01;;;;;;;15.10;8.20;;;12.10;99.90;;;;;;5063702;28;20095;-57
2023/05/14 00:18:27;;;;;;;15.18;8.38;;;12.10;99.90;;;;;;5079481;28;20044;-58
2023/05/14 00:20:53;;;;;;;16.25;8.63;;;11.90;99.90;;;;;;5081514;28;20082;-58
2023/05/14 00:23:23;;;;;;;14.38;7.47;;;11.90;99.90;;;;;;5062265;28;20048;-58
2023/05/14 00:25:49;;;;;;;15.43;7.43;;;12.00;99.90;;;;;;5080342;28;20044;-58
2023/05/14 00:28:15;;;;;;;10.90;7.00;;;11.90;99.90;;;;;;5081043;28;20051;-58
2023/05/14 00:30:41;;;;;;;15.23;7.35;;;11.90;99.90;;;;;;5061275;28;20063;-57
2023/05/14 00:33:06;;;;;;;15.35;7.72;;;11.90;99.90;;;;;;5081536;28;20044;-57
2023/05/14 00:35:34;;;;;;;16.02;7.55;;;11.90;99.90;;;;;;5079375;28;20398;-58
2023/05/14 00:38:01;;;;;;;13.05;7.20;;;11.90;99.90;;;;;;5081264;28;20084;-59
2023/05/14 00:40:27;;;;;;;12.02;7.07;;;11.90;99.90;;;;;;5079975;28;20106;-58
2023/05/14 00:42:53;;;;;;;15.57;7.38;;;11.80;99.90;;;;;;5080262;28;20037;-58
2023/05/14 00:45:19;;;;;;;15.05;7.85;;;11.90;99.90;;;;;;5080550;28;20106;-58
2023/05/14 00:47:45;;;;;;;11.63;8.07;;;11.90;99.90;;;;;;5079178;28;20119;-57
2023/05/14 00:50:13;;;;;;;13.73;7.90;;;11.90;99.90;;;;;;5080962;28;20037;-57
2023/05/14 00:52:39;;;;;;;16.98;8.10;;;11.80;99.90;;;;;;5078715;28;20052;-58
2023/05/14 00:55:06;;;;;;;15.23;7.88;;;11.80;99.90;;;;;;5081236;28;20045;-58
2023/05/14 00:57:33;;;;;;;12.27;7.70;;;11.90;99.90;;;;;;5079747;28;20724;-57
2023/05/14 01:00:00;;;;;;;15.30;8.38;;;11.80;99.90;;;;;;5078855;28;20045;-58
2023/05/14 01:02:26;;;;;;;16.58;8.18;;;11.80;99.90;;;;;;5080439;28;20411;-58
2023/05/14 01:04:52;;;;;;;17.95;8.77;;;11.80;99.90;;;;;;5078825;28;20082;-58
2023/05/14 01:07:35;;;;;;;17.58;7.82;;;11.90;99.90;;;;;;5080478;28;20040;-57
2023/05/14 01:10:26;;;;;;;15.65;8.23;;;11.90;99.90;;;;;;5078783;28;20043;-57
2023/05/14 01:13:11;;;;;;;14.88;7.93;;;11.80;99.90;;;;;;5079555;28;20047;-58
2023/05/14 01:15:38;;;;;;;15.38;7.60;;;11.60;99.90;;;;;;5062213;28;20102;-57
2023/05/14 01:18:07;;;;;;;12.45;8.63;;;11.70;99.90;;;;;;5078497;28;20170;-58
2023/05/14 01:20:34;;;;;;;12.48;7.70;;;11.80;99.90;;;;;;5080654;28;20088;-58
2023/05/14 01:23:02;;;;;;;15.23;8.15;;;11.70;99.90;;;;;;5078664;28;20052;-58
2023/05/14 01:25:29;;;;;;;15.38;8.63;;;11.70;99.90;;;;;;5079989;28;20036;-58
2023/05/14 01:28:19;;;;;;;18.45;8.55;;;11.60;99.90;;;;;;5061708;28;20041;-58
2023/05/14 01:30:53;;;;;;;11.45;7.38;;;11.70;99.90;;;;;;5078184;28;20069;-58
2023/05/14 01:33:23;;;;;;;15.07;8.02;;;11.80;99.90;;;;;;5080218;28;20202;-57
2023/05/14 01:35:52;;;;;;;14.57;8.10;;;11.60;99.90;;;;;;5078347;28;20119;-58
2023/05/14 01:38:19;;;;;;;14.68;8.27;;;11.60;99.90;;;;;;5079456;28;20044;-57
2023/05/14 01:40:46;;;;;;;14.77;7.60;;;11.70;99.90;;;;;;5079276;28;20582;-58
2023/05/14 01:43:12;;;;;;;16.95;9.23;;;11.50;99.90;;;;;;5078652;28;20478;-57
2023/05/14 01:45:38;;;;;;;17.15;8.75;;;11.60;99.90;;;;;;5079742;28;20052;-58
2023/05/14 01:48:04;;;;;;;14.13;8.68;;;11.50;99.90;;;;;;5077901;28;20044;-57
2023/05/14 01:50:30;;;;;;;15.88;9.05;;;11.50;99.90;;;;;;5080198;28;20079;-58
2023/05/14 01:52:56;;;;;;;16.58;9.43;;;11.50;99.90;;;;;;5077950;28;20048;-58
2023/05/14 01:55:25;;;;;;;17.17;8.65;;;11.70;99.90;;;;;;5079442;28;20044;-58
2023/05/14 01:57:51;;;;;;;17.98;9.00;;;11.50;99.90;;;;;;5079193;28;20048;-58
2023/05/14 02:00:18;;;;;;;12.80;8.80;;;11.50;99.90;;;;;;5077845;28;20519;-58
2023/05/14 02:02:44;;;;;;;14.80;9.07;;;11.60;99.90;;;;;;5079480;28;20040;-58
2023/05/14 02:05:10;;;;;;;20.88;8.82;;;11.50;99.90;;;;;;5077517;28;20046;-58
2023/05/14 02:07:36;;;;;;;18.70;8.63;;;11.50;99.90;;;;;;5061553;28;20048;-56
2023/05/14 02:10:01;;;;;;;15.45;8.48;;;11.60;99.90;;;;;;5042855;28;20052;-58
2023/05/14 02:12:27;;;;;;;15.45;7.65;;;11.60;99.90;;;;;;5079181;28;20423;-58
2023/05/14 02:14:53;;;;;;;13.32;8.48;;;11.60;99.90;;;;;;5078728;28;20066;-57
2023/05/14 02:17:19;;;;;;;17.27;8.05;;;11.50;99.90;;;;;;5077636;28;20123;-57
2023/05/14 02:19:45;;;;;;;15.45;8.27;;;11.40;99.90;;;;;;5061095;28;20043;-58
2023/05/14 02:22:11;;;;;;;14.30;8.48;;;11.60;99.90;;;;;;5076824;28;20095;-56
2023/05/14 02:24:37;;;;;;;21.48;9.35;;;11.40;99.90;;;;;;5079599;28;20083;-57
2023/05/14 02:27:03;;;;;;;20.02;9.13;;;11.50;99.90;;;;;;5077403;28;20040;-57
2023/05/14 02:29:28;;;;;;;22.70;9.98;;;11.40;99.90;;;;;;5061017;28;20060;-57
2023/05/14 02:31:55;;;;;;;20.38;8.98;;;11.50;99.90;;;;;;5078340;28;20033;-57
2023/05/14 02:34:20;;;;;;;16.90;9.15;;;11.40;99.90;;;;;;5077667;28;20120;-56
2023/05/14 02:36:46;;;;;;;21.05;9.25;;;11.30;99.90;;;;;;5078619;28;20037;-57
2023/05/14 02:39:12;;;;;;;17.45;9.18;;;11.30;99.90;;;;;;5077219;28;20088;-57
2023/05/14 02:41:37;;;;;;;17.67;9.00;;;11.30;99.90;;;;;;5079049;28;20052;-56
2023/05/14 02:44:03;;;;;;;17.40;9.23;;;11.30;99.90;;;;;;5076905;28;20047;-57
2023/05/14 02:46:30;;;;;;;16.40;9.43;;;11.40;99.90;;;;;;5079052;28;20037;-57
2023/05/14 02:48:56;;;;;;;16.42;9.07;;;11.40;99.90;;;;;;5077530;28;20075;-57
2023/05/14 02:51:22;;;;;;;19.13;9.05;;;11.40;99.90;;;;;;5077344;28;20364;-57
2023/05/14 02:53:48;;;;;;;20.38;9.85;;;11.20;99.90;;;;;;5078514;28;20036;-57
2023/05/14 02:56:14;;;;;;;21.42;10.25;;;11.30;99.90;;;;;;5077084;28;20130;-57
2023/05/14 02:58:40;;;;;;;20.65;10.23;;;11.20;99.90;;;;;;5078414;28;20041;-57
2023/05/14 03:01:05;;;;;;;22.85;10.27;;;11.40;99.90;;;;;;5076474;28;20131;-57
2023/05/14 03:03:31;;;;;;;23.73;10.13;;;11.30;99.90;;;;;;5078930;28;20044;-57
2023/05/14 03:05:57;;;;;;;23.42;9.65;;;11.50;99.90;;;;;;5076749;28;20080;-57
2023/05/14 03:08:23;;;;;;;18.20;9.50;;;11.40;99.90;;;;;;5078005;28;20512;-57
2023/05/14 03:10:48;;;;;;;21.13;9.65;;;11.30;99.90;;;;;;5078195;28;20044;-57
2023/05/14 03:13:19;;;;;;;20.60;9.30;;;11.40;99.90;;;;;;5076995;28;20068;-57
2023/05/14 03:15:46;;;;;;;17.48;8.27;;;11.40;99.90;;;;;;5078407;28;20052;-56
2023/05/14 03:18:12;;;;;;;17.77;9.40;;;11.40;99.90;;;;;;5076352;28;20052;-57
2023/05/14 03:20:38;;;;;;;17.73;9.50;;;11.30;99.90;;;;;;5078442;28;20569;-57
2023/05/14 03:23:04;;;;;;;16.73;8.95;;;11.20;99.90;;;;;;5076160;28;20040;-57
2023/05/14 03:25:29;;;;;;;15.13;9.02;;;11.30;99.90;;;;;;5077709;28;20040;-57
2023/05/14 03:27:55;;;;;;;19.13;8.23;;;11.20;99.90;;;;;;5077758;28;20076;-57
2023/05/14 03:30:21;;;;;;;15.23;9.50;;;11.30;99.90;;;;;;5076713;28;20041;-57
2023/05/14 03:32:47;;;;;;;22.25;9.13;;;11.30;99.90;;;;;;5078451;28;20049;-57
2023/05/14 03:35:12;;;;;;;23.13;9.30;;;11.40;99.90;;;;;;5076080;28;20044;-57
2023/05/14 03:37:38;;;;;;;19.77;8.57;;;11.30;99.90;;;;;;5078448;28;20068;-57
2023/05/14 03:40:04;;;;;;;14.93;8.98;;;11.20;99.90;;;;;;5076560;28;20041;-56
2023/05/14 03:42:30;;;;;;;20.83;8.50;;;11.30;99.90;;;;;;5077797;28;20062;-57
2023/05/14 03:44:56;;;;;;;18.95;8.90;;;11.40;99.90;;;;;;5077418;28;20036;-57
2023/05/14 03:47:21;;;;;;;15.88;7.70;;;11.40;99.90;;;;;;5076589;28;20060;-57
2023/05/14 03:49:47;;;;;;;16.83;7.68;;;11.30;99.90;;;;;;5077873;28;20052;-57
2023/05/14 03:52:13;;;;;;;16.50;7.85;;;11.20;99.90;;;;;;5076200;28;20076;-57
2023/05/14 03:54:40;;;;;;;16.70;7.30;;;11.30;99.90;;;;;;5078359;28;20037;-57
2023/05/14 03:57:05;;;;;;;16.52;8.40;;;11.40;99.90;;;;;;5058005;28;20053;-57
2023/05/14 03:59:31;;;;;;;19.92;7.50;;;11.20;99.90;;;;;;5077836;28;20087;-57
2023/05/14 04:01:57;;;;;;;19.73;7.50;;;11.40;99.90;;;;;;5077248;28;20076;-57
2023/05/14 04:04:22;;;;;;;16.63;7.60;;;11.40;99.90;;;;;;5076462;28;20094;-58
2023/05/14 04:06:48;;;;;;;17.80;7.70;;;11.20;99.90;;;;;;5077825;28;20048;-57
2023/05/14 04:09:14;;;;;;;20.40;7.78;;;11.40;99.90;;;;;;5076117;28;20348;-57
2023/05/14 04:11:39;;;;;;;21.15;7.88;;;11.30;99.90;;;;;;5078471;28;20125;-57
2023/05/14 04:14:05;;;;;;;21.52;9.23;;;11.20;99.90;;;;;;5075951;28;20112;-57
2023/05/14 04:16:31;;;;;;;18.17;7.97;;;11.50;99.90;;;;;;5078089;28;20048;-57
2023/05/14 04:18:57;;;;;;;16.85;8.07;;;11.40;99.90;;;;;;5076683;28;20128;-57
2023/05/14 04:21:22;;;;;;;17.15;7.93;;;11.50;99.90;;;;;;5076509;28;20121;-57
2023/05/14 04:23:49;;;;;;;23.90;9.00;;;11.30;99.90;;;;;;5077485;28;20044;-57
2023/05/14 04:26:15;;;;;;;17.85;9.50;;;11.40;99.90;;;;;;5075774;28;20071;-57
2023/05/14 04:28:40;;;;;;;14.52;9.23;;;11.50;99.90;;;;;;5077986;28;20032;-57
2023/05/14 04:31:06;;;;;;;16.35;8.80;;;11.40;99.90;;;;;;5075505;28;20071;-57
2023/05/14 04:33:32;;;;;;;18.08;10.45;;;11.50;99.90;;;;;;5078208;28;20094;-57
2023/05/14 04:35:57;;;;;;;20.45;9.88;;;11.30;99.90;;;;;;5079826;28;20037;-57
2023/05/14 04:38:23;;;;;;;19.92;9.82;;;11.40;99.90;;;;;;5080385;28;20053;-57
2023/05/14 04:40:49;;;;;;;21.98;10.07;;;11.60;99.90;;;;;;5080891;28;20037;-57
2023/05/14 04:43:16;;;;;;;18.02;9.40;;;11.40;99.90;;;;;;5061469;28;20046;-57
2023/05/14 04:45:42;;;;;;;21.17;9.77;;;11.50;99.90;;;;;;5081268;28;20122;-57
2023/05/14 04:48:07;;;;;;;20.50;9.38;;;11.50;99.90;;;;;;5060880;28;20075;-57
2023/05/14 04:50:33;;;;;;;19.48;8.88;;;11.70;99.90;;;;;;5081239;28;20078;-57
2023/05/14 04:52:59;;;;;;;24.45;8.63;;;11.60;99.90;;;;;;5079458;28;20043;-57
2023/05/14 04:55:25;;;;;;;21.40;9.35;;;11.60;99.90;;;;;;5080404;28;20100;-57
2023/05/14 04:57:51;;;;;;;22.45;8.48;;;11.70;99.90;;;;;;5080267;28;20045;-57
2023/05/14 05:00:18;;;;;;;19.70;9.45;;;11.60;99.90;;;;;;5079171;28;20036;-57
2023/05/14 05:02:43;;;;;;;18.25;8.45;;;11.90;99.90;;;;;;5080648;28;20083;-57
2023/05/14 05:05:09;;;;;;;19.75;9.30;;;11.90;99.90;;;;;;5078690;28;20044;-57
2023/05/14 05:07:35;;;;;;;18.08;7.95;;;11.70;99.90;;;;;;5081121;28;20509;-57
2023/05/14 05:10:01;;;;;;;18.23;8.35;;;11.90;99.90;;;;;;5078769;28;20051;-56
2023/05/14 05:12:28;;;;;;;20.45;8.57;;;12.00;99.90;;;;;;5080196;28;20484;-57
2023/05/14 05:14:56;;;;;;;19.45;8.90;;;11.90;99.90;;;;;;5062316;28;20048;-57
2023/05/14 05:17:22;;;;;;;21.23;8.80;;;12.00;99.90;;;;;;5078789;28;20045;-57
2023/05/14 05:19:48;;;;;;;20.80;8.77;;;11.80;99.90;;;;;;5080167;28;20040;-57
2023/05/14 05:22:14;;;;;;;19.33;8.45;;;12.10;99.90;;;;;;5078259;28;20052;-57
2023/05/14 05:24:40;;;;;;;18.55;8.88;;;12.00;99.90;;;;;;5080467;28;20056;-57
2023/05/14 05:27:05;;;;;;;19.52;8.52;;;12.10;99.90;;;;;;5078537;28;20072;-57
2023/05/14 05:29:31;;;;;;;22.42;8.35;;;12.00;99.90;;;;;;5061725;28;20078;-57
2023/05/14 05:31:57;;;;;;;15.40;7.50;;;12.00;99.90;;;;;;5079684;28;20048;-57
2023/05/14 05:34:23;;;;;;;18.42;7.85;;;12.30;99.90;;;;;;5060865;28;20107;-56
2023/05/14 05:36:48;;;;;;;18.88;7.82;;;12.20;99.90;;;;;;5080072;28;20044;-57
2023/05/14 05:39:14;;;;;;;17.92;7.43;;;12.30;99.90;;;;;;5060023;28;20071;-57
2023/05/14 05:41:40;;;;;;;20.45;7.50;;;12.30;99.90;;;;;;5080194;28;20040;-57
2023/05/14 05:44:05;;;;;;;17.77;7.47;;;12.40;99.90;;;;;;5077802;28;20066;-57
2023/05/14 05:46:31;;;;;;;14.80;7.20;;;12.50;99.90;;;;;;5079655;28;20104;-56
2023/05/14 05:48:56;;;;;;;15.32;7.85;;;12.50;99.90;;;;;;5078810;28;20067;-57
2023/05/14 05:51:22;;;;;;;15.57;6.93;;;12.50;99.90;;;;;;5078976;28;20045;-57
2023/05/14 05:53:48;;;;;;;18.95;8.50;;;12.70;99.90;;;;;;5061463;28;20045;-57
2023/05/14 05:56:14;;;;;;;15.88;7.30;;;12.70;99.90;;;;;;5077895;28;20052;-57
2023/05/14 05:58:39;;;;;;;17.65;6.93;;;12.80;99.90;;;;;;5079717;28;20048;-58
2023/05/14 06:01:05;;;;;;;18.40;7.53;;;13.10;99.90;;;;;;5077411;28;20052;-57
2023/05/14 06:03:31;;;;;;;15.25;6.68;;;13.00;99.90;;;;;;5079649;28;20029;-57
2023/05/14 06:05:56;;;;;;;17.05;6.90;;;13.10;99.90;;;;;;5078321;28;20141;-57
2023/05/14 06:08:22;;;;;;;18.35;8.35;;;13.30;99.90;;;;;;5078657;28;20048;-57
2023/05/14 06:10:48;;;;;;;14.38;6.40;;;13.50;99.90;;;;;;5078978;28;20044;-57
2023/05/14 06:13:13;;;;;;;13.10;7.00;;;13.40;99.90;;;;;;5077497;28;20041;-57
2023/05/14 06:15:39;;;;;;;17.48;6.93;;;13.50;99.90;;;;;;5079237;28;20041;-57
2023/05/14 06:18:05;;;;;;;17.10;6.88;;;13.70;99.90;;;;;;5077438;28;20108;-57
2023/05/14 06:20:31;;;;;;;16.90;7.35;;;13.70;99.90;;;;;;5079450;28;20049;-57
2023/05/14 06:22:57;;;;;;;14.27;7.35;;;13.60;99.90;;;;;;5077604;28;20083;-57
2023/05/14 06:25:23;;;;;;;15.82;7.15;;;13.60;99.90;;;;;;5078417;28;20515;-57
2023/05/14 06:27:48;;;;;;;13.88;6.80;;;13.70;99.90;;;;;;5078433;28;20040;-56
2023/05/14 06:30:14;;;;;;;16.40;6.95;;;13.60;99.90;;;;;;5077294;28;20053;-57
2023/05/14 06:32:40;;;;;;;15.18;7.18;;;13.60;99.90;;;;;;5079041;28;20408;-57
2023/05/14 06:35:06;;;;;;;15.88;6.97;;;13.50;99.90;;;;;;5076963;28;20066;-57
2023/05/14 06:37:32;;;;;;;14.85;6.88;;;13.50;99.90;;;;;;5079345;28;20032;-57
2023/05/14 06:39:58;;;;;;;16.65;7.70;;;13.50;99.90;;;;;;5077042;28;20095;-56
2023/05/14 06:42:25;;;;;;;17.05;7.13;;;13.50;99.90;;;;;;5078629;28;20052;-56
2023/05/14 06:44:50;;;;;;;15.93;7.70;;;13.70;99.90;;;;;;5060134;28;20044;-57
2023/05/14 06:47:16;;;;;;;16.90;7.53;;;13.60;99.90;;;;;;5077387;28;20066;-57
2023/05/14 06:49:42;;;;;;;13.75;7.18;;;13.70;99.90;;;;;;5078844;28;20220;-57
2023/05/14 06:52:08;;;;;;;14.45;7.97;;;13.90;99.90;;;;;;5059103;28;20075;-57
2023/05/14 06:54:33;;;;;;;15.00;7.45;;;13.90;99.90;;;;;;5078873;28;20058;-57
2023/05/14 06:56:59;;;;;;;14.50;8.20;;;14.00;99.90;;;;;;5075916;28;20079;-58
2023/05/14 06:59:25;;;;;;;16.80;7.50;;;13.90;99.90;;;;;;5078146;28;20103;-58
2023/05/14 07:01:50;;;;;;;15.70;7.53;;;14.00;99.90;;;;;;5060113;28;20128;-57
2023/05/14 07:04:16;;;;;;;19.83;8.15;;;14.10;99.90;;;;;;5077312;28;20530;-57
2023/05/14 07:06:42;;;;;;;15.77;6.88;;;14.30;99.90;;;;;;5078498;28;20044;-58
2023/05/14 07:09:07;;;;;;;17.55;6.80;;;14.40;99.90;;;;;;5076590;28;20098;-57
2023/05/14 07:11:33;;;;;;;16.13;6.53;;;14.40;99.90;;;;;;5078577;28;20044;-57
2023/05/14 07:13:59;;;;;;;16.15;6.53;;;14.50;99.90;;;;;;5076764;28;20094;-57
2023/05/14 07:16:25;;;;;;;18.42;6.72;;;14.50;99.90;;;;;;5078763;28;20439;-57
2023/05/14 07:18:51;;;;;;;17.55;6.60;;;14.70;99.90;;;;;;5077579;28;20075;-57
2023/05/14 07:21:17;;;;;;;17.20;6.55;;;14.70;99.90;;;;;;5077379;28;20495;-57
2023/05/14 07:23:42;;;;;;;15.93;6.90;;;14.80;99.90;;;;;;5078141;28;20068;-56
2023/05/14 07:26:09;;;;;;;15.55;6.50;;;14.70;99.90;;;;;;5076890;28;20055;-57
2023/05/14 07:28:34;;;;;;;15.77;6.25;;;14.80;99.90;;;;;;5078371;28;20037;-58
2023/05/14 07:31:00;;;;;;;18.63;7.70;;;14.90;99.90;;;;;;5076246;28;20058;-57
2023/05/14 07:33:26;;;;;;;17.73;7.20;;;15.00;99.90;;;;;;5078551;28;20071;-58
2023/05/14 07:35:53;;;;;;;16.35;6.70;;;15.10;99.90;;;;;;5077097;28;20060;-57
2023/05/14 07:38:19;;;;;;;16.35;6.53;;;15.00;99.90;;;;;;5077444;28;20082;-57
2023/05/14 07:40:45;;;;;;;16.88;8.30;;;15.00;99.90;;;;;;5059904;28;20041;-57
2023/05/14 07:43:10;;;;;;;15.82;7.03;;;15.20;99.90;;;;;;5076496;28;20059;-57
2023/05/14 07:45:38;;;;;;;18.25;8.40;;;15.10;99.90;;;;;;5078304;28;20091;-57
2023/05/14 07:48:03;;;;;;;20.25;7.00;;;15.20;99.90;;;;;;5076040;28;20047;-57
2023/05/14 07:50:30;;;;;;;17.58;7.70;;;15.30;99.90;;;;;;5078492;28;20040;-57
2023/05/14 07:52:56;;;;;;;15.15;7.00;;;15.20;99.90;;;;;;5076560;28;20044;-57
2023/05/14 07:55:22;;;;;;;17.27;7.30;;;15.30;99.90;;;;;;5077272;28;20068;-57
2023/05/14 07:57:48;;;;;;;15.98;7.32;;;15.30;99.90;;;;;;5059270;28;20048;-56
2023/05/14 08:00:15;;;;;;;15.80;7.30;;;15.30;99.90;;;;;;5058204;28;20059;-57
2023/05/14 08:02:41;;;;;;;16.83;6.85;;;15.20;99.90;;;;;;5060146;28;20058;-58
2023/05/14 08:05:08;;;;;;;15.50;7.18;;;14.90;99.90;;;;;;5075617;28;20079;-57
2023/05/14 08:07:34;;;;;;;14.43;7.50;;;14.70;99.90;;;;;;5078574;28;20068;-57
2023/05/14 08:10:00;;;;;;;18.55;7.72;;;14.90;99.90;;;;;;5080090;28;20415;-57
2023/05/14 08:12:26;;;;;;;13.05;6.32;;;14.80;99.90;;;;;;5081447;28;20238;-57
2023/05/14 08:14:52;;;;;;;15.80;7.38;;;14.80;99.90;;;;;;5080910;28;20041;-57
2023/05/14 08:17:17;;;;;;;17.35;7.72;;;15.00;99.90;;;;;;5079871;28;20040;-57
2023/05/14 08:19:43;;;;;;;19.85;7.13;;;15.00;99.90;;;;;;5081332;28;20116;-57
2023/05/14 08:22:09;;;;;;;17.85;6.80;;;15.10;99.90;;;;;;5079438;28;20060;-57
2023/05/14 08:24:35;;;;;;;17.52;7.25;;;15.30;99.90;;;;;;5081618;28;20060;-57
2023/05/14 08:27:01;;;;;;;14.30;6.45;;;15.40;99.90;;;;;;5079571;28;20148;-57
2023/05/14 08:29:27;;;;;;;16.70;7.28;;;15.40;99.90;;;;;;5080927;28;20051;-58
2023/05/14 08:31:52;;;;;;;12.50;6.05;;;15.30;99.90;;;;;;5062501;28;20052;-58
2023/05/14 08:34:18;;;;;;;18.35;6.65;;;15.50;99.90;;;;;;5079892;28;20076;-58
2023/05/14 08:36:44;;;;;;;16.00;6.72;;;15.50;99.90;;;;;;5081020;28;20043;-58
2023/05/14 08:39:10;;;;;;;11.65;6.20;;;15.40;99.90;;;;;;5078997;28;20109;-58
2023/05/14 08:41:36;;;;;;;16.83;6.82;;;15.50;99.90;;;;;;5063502;28;20102;-58
2023/05/14 08:44:17;;;;;;;13.23;6.50;;;15.40;99.90;;;;;;5079292;28;20036;-58
2023/05/14 08:46:43;;;;;;;13.35;6.72;;;15.70;99.90;;;;;;5080789;28;20046;-58
2023/05/14 08:49:36;;;;;;;12.05;6.88;;;15.70;99.90;;;;;;5080452;28;20404;-58
2023/05/14 08:52:02;;;;;;;17.70;7.03;;;16.00;99.90;;;;;;5079051;28;20055;-58
2023/05/14 08:54:31;;;;;;;14.82;6.82;;;16.10;99.90;;;;;;5081069;28;20044;-58
2023/05/14 08:56:57;;;;;;;15.85;6.60;;;16.00;99.90;;;;;;5079156;28;20049;-58
2023/05/14 08:59:23;;;;;;;13.73;6.88;;;15.80;99.90;;;;;;5080538;28;20063;-58
2023/05/14 09:01:54;;;;;;;14.85;7.15;;;16.00;99.90;;;;;;5080069;28;20036;-57
2023/05/14 09:04:22;;;;;;;13.70;6.63;;;15.80;99.90;;;;;;5078839;28;20106;-58
2023/05/14 09:06:49;;;;;;;15.60;6.53;;;15.80;99.90;;;;;;5080661;28;20080;-58
2023/05/14 09:09:15;;;;;;;13.15;6.60;;;15.80;99.90;;;;;;5078642;28;20032;-58
2023/05/14 09:11:41;;;;;;;14.73;7.60;;;16.00;99.90;;;;;;5080872;28;20045;-58
2023/05/14 09:14:08;;;;;;;13.77;6.40;;;16.10;99.90;;;;;;5078683;28;20049;-58
2023/05/14 09:16:35;;;;;;;15.32;8.65;;;16.10;99.90;;;;;;5080367;28;20044;-57
2023/05/14 09:19:05;;;;;;;15.40;7.25;;;16.00;99.90;;;;;;5078980;28;20040;-57
2023/05/14 09:21:32;;;;;;;15.93;6.72;;;16.00;99.90;;;;;;5078383;28;20032;-58
2023/05/14 09:23:57;;;;;;;14.43;6.88;;;16.20;99.90;;;;;;5080128;28;20052;-58
2023/05/14 09:26:25;;;;;;;14.50;6.82;;;16.30;99.90;;;;;;5043461;28;20137;-58
2023/05/14 09:28:56;;;;;;;17.00;7.25;;;16.40;99.90;;;;;;5080530;28;20389;-58
2023/05/14 09:31:22;;;;;;;21.50;7.53;;;16.70;99.90;;;;;;5077926;28;20052;-58
2023/05/14 09:33:52;;;;;;;19.65;7.95;;;16.50;99.90;;;;;;5079658;28;20106;-58
2023/05/14 09:36:18;;;;;;;18.58;8.32;;;16.60;99.90;;;;;;5079172;28;20070;-58
2023/05/14 09:38:44;;;;;;;17.48;7.40;;;16.50;99.90;;;;;;5078189;28;20045;-58
2023/05/14 09:41:10;;;;;;;17.17;8.75;;;16.70;99.90;;;;;;5079406;28;20405;-58
2023/05/14 09:43:36;;;;;;;16.35;7.72;;;16.70;99.90;;;;;;5077740;28;20032;-58
2023/05/14 09:46:01;;;;;;;14.10;7.30;;;16.80;99.90;;;;;;5079717;28;20075;-58
2023/05/14 09:48:27;;;;;;;17.40;7.95;;;17.00;99.90;;;;;;5078287;28;20124;-58
2023/05/14 09:50:53;;;;;;;13.07;7.70;;;17.00;99.90;;;;;;5079618;28;20137;-58
2023/05/14 09:53:19;;;;;;;15.40;8.30;;;17.10;99.90;;;;;;5079095;28;20396;-57
2023/05/14 09:55:45;;;;;;;17.65;7.85;;;17.20;99.90;;;;;;5078353;28;20051;-58
2023/05/14 09:58:13;;;;;;;19.98;8.65;;;17.40;99.90;;;;;;5061559;28;20052;-58
2023/05/14 10:00:41;;;;;;;13.32;8.57;;;17.50;99.90;;;;;;5077248;28;20530;-57
2023/05/14 10:03:07;;;;;;;13.25;7.43;;;17.60;99.90;;;;;;5079850;28;20040;-58
2023/05/14 10:05:38;;;;;;;16.50;7.55;;;17.60;99.90;;;;;;5077553;28;20052;-58
2023/05/14 10:08:25;;;;;;;13.05;8.25;;;17.70;99.90;;;;;;5079154;28;20044;-58
2023/05/14 10:10:54;;;;;;;13.60;7.35;;;17.90;99.90;;;;;;5061108;28;20079;-58
2023/05/14 10:13:23;;;;;;;12.52;6.60;;;17.80;99.90;;;;;;5077509;28;20036;-58
2023/05/14 10:16:02;;;;;;;17.90;8.77;;;17.80;99.90;;;;;;5079469;28;20075;-57
2023/05/14 10:18:30;;;;;;;14.30;7.65;;;17.90;99.90;;;;;;5077435;28;20091;-58
2023/05/14 10:21:07;;;;;;;15.10;6.97;;;18.00;99.90;;;;;;5078515;28;20098;-58
2023/05/14 10:23:36;;;;;;;13.30;7.07;;;18.10;99.90;;;;;;5078410;28;20237;-58
2023/05/14 10:26:03;;;;;;;15.07;7.32;;;18.20;99.90;;;;;;5077089;28;20055;-58
2023/05/14 10:28:29;;;;;;;12.32;6.85;;;18.40;99.90;;;;;;5061113;28;20072;-59
2023/05/14 10:30:55;;;;;;;14.32;7.60;;;18.60;99.90;;;;;;5076475;28;20032;-59
2023/05/14 10:33:21;;;;;;;10.30;6.20;;;18.70;99.90;;;;;;5078990;28;20040;-59
2023/05/14 10:36:03;;;;;;;15.85;6.82;;;18.80;99.90;;;;;;5077173;28;20058;-58
2023/05/14 10:38:29;;;;;;;;;;;18.80;99.90;;;;;;5078259;28;20055;-60
2023/05/14 10:41:20;;;;;;;16.25;7.20;;;18.70;99.90;;;;;;5078524;28;19920;-58
2023/05/14 10:43:46;;;;;;;14.20;7.55;;;18.80;99.90;;;;;;5076367;28;20134;-58
2023/05/14 10:46:12;;;;;;;12.13;7.22;;;18.70;99.90;;;;;;5078597;28;20043;-58
2023/05/14 10:48:41;;;;;;;11.93;7.53;;;18.70;99.90;;;;;;5077452;28;20071;-58
2023/05/14 10:51:09;;;;;;;14.18;7.93;;;18.90;99.90;;;;;;5078131;28;20085;-58
2023/05/14 10:53:40;;;;;;;13.73;7.70;;;18.80;99.90;;;;;;5078175;28;20037;-58
2023/05/14 10:56:07;;;;;;;13.68;7.97;;;18.70;99.90;;;;;;5076679;28;20504;-58
2023/05/14 10:58:37;;;;;;;15.60;8.38;;;18.60;99.90;;;;;;5078355;28;20059;-57
2023/05/14 11:01:05;;;;;;;14.88;7.65;;;18.70;99.90;;;;;;5076443;28;20088;-57
2023/05/14 11:03:37;;;;;;;13.10;7.53;;;18.70;99.90;;;;;;5078331;28;20535;-58
2023/05/14 11:06:03;;;;;;;;;;;19.00;99.90;;;;;;5077693;28;20056;-58
2023/05/14 11:08:30;;;;;;;15.63;8.32;;;19.00;99.90;;;;;;5077061;28;19921;-58
2023/05/14 11:10:56;;;;;;;15.43;9.02;;;19.10;99.90;;;;;;5078364;28;20033;-58
2023/05/14 11:13:22;;;;;;;12.80;8.15;;;19.10;99.90;;;;;;5076339;28;20062;-58
2023/05/14 11:15:48;;;;;;;13.77;8.38;;;19.10;99.90;;;;;;5078689;28;20052;-57
2023/05/14 11:18:28;;;;;;;15.90;8.20;;;19.20;99.90;;;;;;5076688;28;20068;-57
2023/05/14 11:20:58;;;;;;;15.50;8.90;;;19.10;99.90;;;;;;5077754;28;20111;-58
2023/05/14 11:23:24;;;;;;;16.33;8.88;;;19.30;99.90;;;;;;5077982;28;20049;-58
2023/05/14 11:25:53;;;;;;;17.95;9.07;;;19.40;99.90;;;;;;5076709;28;20397;-58
2023/05/14 11:28:23;;;;;;;13.85;8.35;;;19.30;99.90;;;;;;5078390;28;20048;-57
2023/05/14 11:30:50;;;;;;;12.80;8.52;;;19.20;99.90;;;;;;5076217;28;20045;-58
2023/05/14 11:33:17;;;;;;;14.18;8.77;;;19.50;99.90;;;;;;5078575;28;20037;-58
2023/05/14 11:35:44;;;;;;;12.27;8.30;;;19.80;99.90;;;;;;5076730;28;20067;-58
2023/05/14 11:38:17;;;;;;;13.75;8.60;;;19.80;99.90;;;;;;5077587;28;20052;-58
2023/05/14 11:40:54;;;;;;;12.45;8.98;;;19.90;99.90;;;;;;5077974;28;20060;-58
2023/05/14 11:43:23;;;;;;;15.68;8.63;;;20.10;99.90;;;;;;5078165;28;20051;-58
2023/05/14 11:45:51;;;;;;;10.90;7.55;;;20.00;99.90;;;;;;5082432;28;20048;-58
2023/05/14 11:48:17;;;;;;;13.65;7.90;;;20.00;99.90;;;;;;5080347;28;20048;-58
2023/05/14 11:50:47;;;;;;;14.02;8.48;;;20.30;99.90;;;;;;5082043;28;20067;-58
2023/05/14 11:53:24;;;;;;;13.18;7.75;;;20.10;99.90;;;;;;5081319;28;20083;-57
2023/05/14 11:55:51;;;;;;;12.95;8.43;;;20.40;99.90;;;;;;5080512;28;20068;-58
2023/05/14 11:58:17;;;;;;;13.30;8.40;;;20.60;99.90;;;;;;5081909;28;20312;-58
2023/05/14 12:00:50;;;;;;;13.35;8.38;;;20.80;99.90;;;;;;5079773;28;20153;-58
2023/05/14 12:03:22;;;;;;;10.77;7.43;;;20.70;99.90;;;;;;5082093;28;20445;-58
2023/05/14 12:05:58;;;;;;;11.18;7.72;;;20.90;99.90;;;;;;5080421;28;20044;-58
2023/05/14 12:08:28;;;;;;;13.25;7.47;;;20.80;99.90;;;;;;5080340;28;20092;-57
2023/05/14 12:10:55;;;;;;;9.93;6.90;;;20.70;99.90;;;;;;5081692;28;20040;-58
2023/05/14 12:13:24;;;;;;;12.40;7.40;;;20.80;99.90;;;;;;5079355;28;20052;-58
2023/05/14 12:15:57;;;;;;;14.10;7.85;;;20.80;99.90;;;;;;5081799;28;20047;-58
2023/05/14 12:18:28;;;;;;;11.10;6.80;;;20.70;99.90;;;;;;5079771;28;20061;-58
2023/05/14 12:20:54;;;;;;;9.77;6.38;;;20.70;99.90;;;;;;5081054;28;20040;-58
2023/05/14 12:23:28;;;;;;;9.38;6.05;;;20.50;99.90;;;;;;5080842;28;20063;-58
2023/05/14 12:25:53;;;;;;;11.75;6.65;;;20.70;99.90;;;;;;5079629;28;20041;-58
2023/05/14 12:28:21;;;;;;;10.55;5.50;;;20.70;99.90;;;;;;5063420;28;20062;-57
2023/05/14 12:30:54;;;;;;;9.82;5.50;;;20.70;99.90;;;;;;5079208;28;20047;-58
2023/05/14 12:33:22;;;;;;;11.40;5.00;;;20.70;99.90;;;;;;5081492;28;20412;-58
2023/05/14 12:35:48;;;;;;;11.13;5.95;;;20.80;99.90;;;;;;5080010;28;20060;-58
2023/05/14 12:38:14;;;;;;;10.63;6.20;;;21.00;99.90;;;;;;5080423;28;20040;-58